createdAt,value
2022-11-08T00:02:50.699Z,10.80
2022-11-08T00:08:01.170Z,10.50
2022-11-08T00:13:11.475Z,11.34
2022-11-08T00:18:03.159Z,11.53
2022-11-08T00:22:55.484Z,11.75
2022-11-08T00:27:47.064Z,11.03
2022-11-08T00:32:38.678Z,11.64
2022-11-08T00:37:31.353Z,10.18
2022-11-08T00:42:22.940Z,12.24
2022-11-08T00:47:14.563Z,11.37
2022-11-08T00:52:06.172Z,11.07
2022-11-08T00:57:00.938Z,11.80
2022-11-08T01:01:54.051Z,12.43
2022-11-08T01:06:46.064Z,11.37
2022-11-08T01:11:38.984Z,12.72
2022-11-08T01:16:33.188Z,12.03
2022-11-08T01:21:25.703Z,10.35
2022-11-08T01:26:19.943Z,10.72
2022-11-08T01:31:18.410Z,12.13
2022-11-08T01:36:14.082Z,12.25
2022-11-08T01:41:06.540Z,11.06
2022-11-08T01:46:16.312Z,12.74
2022-11-08T01:51:11.807Z,9.76
2022-11-08T01:56:05.172Z,11.64
2022-11-08T02:00:58.362Z,11.18
2022-11-08T02:05:51.106Z,10.83
2022-11-08T02:10:45.617Z,8.93
2022-11-08T02:15:37.244Z,11.91
2022-11-08T02:20:29.174Z,11.21
2022-11-08T02:25:21.392Z,8.94
2022-11-08T02:30:13.367Z,11.30
2022-11-08T02:35:08.672Z,9.76
2022-11-08T02:40:00.246Z,9.29
2022-11-08T02:44:52.620Z,10.46
2022-11-08T02:49:44.291Z,8.78
2022-11-08T02:54:36.670Z,10.01
2022-11-08T02:59:28.268Z,10.25
2022-11-08T03:04:20.537Z,8.24
2022-11-08T03:09:12.304Z,10.59
2022-11-08T03:14:05.557Z,10.24
2022-11-08T03:18:57.255Z,10.47
2022-11-08T03:23:48.884Z,8.07
2022-11-08T03:28:40.566Z,9.54
2022-11-08T03:33:32.266Z,8.96
2022-11-08T03:38:23.871Z,8.46
2022-11-08T03:43:15.841Z,7.55
2022-11-08T03:48:07.768Z,9.95
2022-11-08T03:53:00.395Z,9.10
2022-11-08T03:57:52.947Z,8.38
2022-11-08T04:02:45.034Z,10.26
2022-11-08T04:07:36.733Z,8.33
2022-11-08T04:12:46.980Z,9.26
2022-11-08T04:17:57.390Z,9.98
2022-11-08T04:22:49.007Z,9.92
2022-11-08T04:27:41.299Z,6.36
2022-11-08T04:32:32.917Z,9.28
2022-11-08T04:37:24.532Z,8.98
2022-11-08T04:42:16.192Z,8.37
2022-11-08T04:47:07.819Z,9.20
2022-11-08T04:51:59.434Z,8.58
2022-11-08T04:56:51.141Z,8.78
2022-11-08T05:01:42.895Z,8.32
2022-11-08T05:06:35.354Z,9.48
2022-11-08T05:11:29.169Z,9.41
2022-11-08T05:16:26.685Z,7.17
2022-11-08T05:21:39.451Z,9.43
2022-11-08T05:26:33.842Z,7.88
2022-11-08T05:31:26.327Z,8.81
2022-11-08T05:36:17.916Z,7.22
2022-11-08T05:41:13.753Z,9.22
2022-11-08T05:46:06.052Z,9.28
2022-11-08T05:50:57.716Z,7.43
2022-11-08T05:55:49.677Z,7.14
2022-11-08T06:00:41.849Z,7.66
2022-11-08T06:05:34.410Z,9.31
2022-11-08T06:10:27.026Z,8.88
2022-11-08T06:15:19.043Z,6.81
2022-11-08T06:20:14.153Z,8.75
2022-11-08T06:25:06.768Z,6.85
2022-11-08T06:29:59.170Z,8.18
2022-11-08T06:34:50.763Z,8.60
2022-11-08T06:39:42.619Z,7.43
2022-11-08T06:44:34.307Z,6.33
2022-11-08T06:49:26.390Z,8.41
2022-11-08T06:54:20.220Z,9.13
2022-11-08T06:59:14.590Z,6.04
2022-11-08T07:04:06.190Z,7.75
2022-11-08T07:08:57.784Z,7.43
2022-11-08T07:13:49.622Z,9.39
2022-11-08T07:18:41.444Z,7.94
2022-11-08T07:23:33.341Z,10.14
2022-11-08T07:28:25.404Z,8.04
2022-11-08T07:33:18.042Z,9.87
2022-11-08T07:38:09.958Z,8.74
2022-11-08T07:43:17.266Z,10.45
2022-11-08T07:48:12.820Z,10.48
2022-11-08T07:53:04.763Z,12.48
2022-11-08T07:58:02.240Z,10.13
2022-11-08T08:03:01.122Z,10.52
2022-11-08T08:07:55.966Z,9.51
2022-11-08T08:12:47.547Z,11.28
2022-11-08T08:17:39.195Z,10.76
2022-11-08T08:22:30.820Z,10.54
2022-11-08T08:27:22.476Z,12.09
2022-11-08T08:32:14.205Z,11.15
2022-11-08T08:37:05.902Z,11.20
2022-11-08T08:41:57.555Z,11.32
2022-11-08T08:46:49.927Z,12.18
2022-11-08T08:51:41.588Z,13.02
2022-11-08T08:56:33.200Z,13.28
2022-11-08T09:01:41.004Z,12.16
2022-11-08T09:06:32.710Z,13.30
2022-11-08T09:11:24.434Z,11.84
2022-11-08T09:16:41.298Z,13.67
2022-11-08T09:21:33.091Z,12.10
2022-11-08T09:26:25.796Z,12.70
2022-11-08T09:31:17.667Z,12.54
2022-11-08T09:36:13.045Z,12.29
2022-11-08T09:41:24.837Z,10.62
2022-11-08T09:46:28.287Z,12.04
2022-11-08T09:51:23.188Z,10.42
2022-11-08T09:56:21.880Z,13.63
2022-11-08T10:01:14.197Z,13.76
2022-11-08T10:06:29.787Z,13.28
2022-11-08T10:11:30.875Z,14.14
2022-11-08T10:16:44.700Z,13.28
2022-11-08T10:21:59.613Z,13.73
2022-11-08T10:26:54.671Z,12.63
2022-11-08T10:31:48.611Z,13.59
2022-11-08T10:36:54.744Z,13.03
2022-11-08T10:42:21.793Z,13.78
2022-11-08T10:47:31.901Z,11.96
2022-11-08T10:52:46.650Z,14.11
2022-11-08T10:57:43.652Z,14.06
2022-11-08T11:02:35.809Z,13.96
2022-11-08T11:07:35.794Z,14.44
2022-11-08T11:12:27.492Z,13.31
2022-11-08T11:17:19.211Z,14.19
2022-11-08T11:22:13.068Z,13.34
2022-11-08T11:27:21.590Z,13.65
2022-11-08T11:32:21.897Z,15.14
2022-11-08T11:37:30.901Z,14.65
2022-11-08T11:42:47.125Z,15.20
2022-11-08T11:47:48.979Z,15.15
2022-11-08T11:52:40.708Z,14.47
2022-11-08T11:57:47.382Z,13.33
2022-11-08T12:03:02.246Z,15.33
2022-11-08T12:07:58.582Z,14.83
2022-11-08T12:13:22.643Z,15.44
2022-11-08T12:18:44.563Z,15.33
2022-11-08T12:24:15.177Z,15.32
2022-11-08T12:29:29.546Z,13.73
2022-11-08T12:34:23.428Z,15.46
2022-11-08T12:39:28.973Z,15.79
2022-11-08T12:44:23.532Z,16.15
2022-11-08T12:49:29.551Z,13.96
2022-11-08T12:54:42.719Z,15.90
2022-11-08T12:59:42.580Z,14.39
2022-11-08T13:04:56.237Z,15.91
2022-11-08T13:10:21.937Z,14.21
2022-11-08T13:15:21.260Z,15.41
2022-11-08T13:20:42.581Z,14.56
2022-11-08T13:25:35.818Z,15.44
2022-11-08T13:30:34.104Z,13.89
2022-11-08T13:35:35.552Z,14.38
2022-11-08T13:40:43.588Z,15.47
2022-11-08T13:45:35.950Z,15.55
2022-11-08T13:50:27.676Z,15.53
2022-11-08T13:55:44.051Z,14.17
2022-11-08T14:00:44.490Z,15.53
2022-11-08T14:05:46.761Z,16.06
2022-11-08T14:11:21.039Z,15.14
2022-11-08T14:16:18.777Z,16.17
2022-11-08T14:21:17.922Z,15.22
2022-11-08T14:26:21.522Z,16.50
2022-11-08T14:31:26.800Z,16.02
2022-11-08T14:36:19.998Z,14.17
2022-11-08T14:41:16.058Z,14.59
2022-11-08T14:46:27.684Z,16.39
2022-11-08T14:51:19.707Z,16.27
2022-11-08T14:56:24.064Z,14.81
2022-11-08T15:01:18.473Z,13.53
2022-11-08T15:06:14.334Z,14.41
2022-11-08T15:11:10.028Z,15.71
2022-11-08T15:16:03.936Z,15.96
2022-11-08T15:20:58.846Z,14.05
2022-11-08T15:31:15.634Z,15.77
2022-11-08T15:36:15.036Z,15.72
2022-11-08T15:41:26.072Z,15.11
2022-11-08T15:46:27.898Z,15.61
2022-11-08T15:51:19.512Z,15.23
2022-11-08T15:56:13.675Z,15.50
2022-11-08T16:01:06.707Z,13.78
2022-11-08T16:05:58.459Z,15.11
2022-11-08T16:10:53.585Z,13.77
2022-11-08T16:15:46.146Z,14.84
2022-11-08T16:20:39.626Z,14.00
2022-11-08T16:25:47.787Z,14.47
2022-11-08T16:30:39.864Z,13.95
2022-11-08T16:35:31.592Z,13.97
2022-11-08T16:40:24.784Z,13.11
2022-11-08T16:45:19.615Z,13.50
2022-11-08T16:50:19.077Z,14.93
2022-11-08T16:55:17.736Z,13.23
2022-11-08T17:00:12.403Z,14.41
2022-11-08T17:05:04.854Z,13.37
2022-11-08T17:09:56.572Z,14.89
2022-11-08T17:14:48.212Z,14.39
2022-11-08T17:19:39.913Z,14.19
2022-11-08T17:24:31.684Z,13.49
2022-11-08T17:29:23.405Z,12.76
2022-11-08T17:34:15.077Z,14.59
2022-11-08T17:39:07.580Z,14.92
2022-11-08T17:43:59.275Z,14.89
2022-11-08T17:48:50.960Z,13.64
2022-11-08T17:53:43.143Z,13.37
2022-11-08T17:58:34.920Z,13.87
2022-11-08T18:03:27.260Z,12.79
2022-11-08T18:08:24.069Z,14.01
2022-11-08T18:13:18.955Z,12.43
2022-11-08T18:18:11.836Z,14.43
2022-11-08T18:23:04.064Z,14.86
2022-11-08T18:27:55.752Z,14.06
2022-11-08T18:32:47.375Z,13.43
2022-11-08T18:37:39.117Z,12.66
2022-11-08T18:42:31.462Z,13.25
2022-11-08T18:47:23.133Z,14.27
2022-11-08T18:52:15.284Z,13.74
2022-11-08T18:57:06.933Z,14.15
2022-11-08T19:01:58.926Z,12.86
2022-11-08T19:06:54.502Z,14.11
2022-11-08T19:11:50.982Z,13.96
2022-11-08T19:16:42.618Z,11.74
2022-11-08T19:21:34.510Z,13.55
2022-11-08T19:26:28.061Z,14.88
2022-11-08T19:31:22.894Z,13.93
2022-11-08T19:36:17.286Z,12.95
2022-11-08T19:41:14.379Z,14.04
2022-11-08T19:46:08.860Z,13.21
2022-11-08T19:51:02.177Z,13.12
2022-11-08T19:56:01.289Z,14.52
2022-11-08T20:00:54.200Z,13.14
2022-11-08T20:05:50.598Z,14.04
2022-11-08T20:10:42.990Z,13.06
2022-11-08T20:15:34.752Z,13.92
2022-11-08T20:20:26.534Z,13.18
2022-11-08T20:25:18.297Z,13.93
2022-11-08T20:30:11.779Z,13.70
2022-11-08T20:35:04.279Z,12.76
2022-11-08T20:39:56.126Z,12.92
2022-11-08T20:44:47.780Z,12.81
2022-11-08T20:49:39.595Z,12.29
2022-11-08T20:54:34.455Z,14.86
2022-11-08T20:59:27.096Z,14.76
2022-11-08T21:04:18.888Z,13.05
2022-11-08T21:09:34.411Z,12.94
2022-11-08T21:14:23.913Z,12.99
2022-11-08T21:19:15.728Z,13.00
2022-11-08T21:24:07.958Z,12.73
2022-11-08T21:28:59.553Z,13.60
2022-11-08T21:33:51.295Z,14.33
2022-11-08T21:38:42.972Z,13.63
2022-11-08T21:43:36.865Z,13.43
2022-11-08T21:48:28.579Z,14.68
2022-11-08T21:53:20.240Z,14.25
2022-11-08T21:58:11.866Z,13.13
2022-11-08T22:03:03.562Z,12.84
2022-11-08T22:07:55.163Z,14.18
2022-11-08T22:12:47.179Z,11.41
2022-11-08T22:17:46.037Z,13.74
2022-11-08T22:22:50.591Z,12.83
2022-11-08T22:27:42.178Z,12.52
2022-11-08T22:32:35.271Z,12.86
2022-11-08T22:37:26.875Z,12.41
2022-11-08T22:42:19.180Z,11.44
2022-11-08T22:47:10.850Z,14.52
2022-11-08T22:52:02.532Z,13.39
2022-11-08T22:56:54.235Z,12.77
2022-11-08T23:01:45.888Z,13.60
2022-11-08T23:06:40.741Z,14.00
2022-11-08T23:11:51.265Z,14.24
2022-11-08T23:16:44.824Z,12.89
2022-11-08T23:21:55.380Z,11.93
2022-11-08T23:27:05.674Z,13.80
2022-11-08T23:31:57.445Z,12.61
2022-11-08T23:36:49.947Z,13.40
2022-11-08T23:42:07.898Z,12.82
2022-11-08T23:47:01.272Z,11.39
2022-11-08T23:51:53.868Z,13.91
2022-11-08T23:56:45.877Z,14.06
